createdAt,value
2022-11-17T00:02:03.465Z,8.75
2022-11-17T00:04:32.300Z,6.00
2022-11-17T00:07:01.692Z,5.63
2022-11-17T00:09:30.474Z,7.13
2022-11-17T00:12:22.375Z,6.72
2022-11-17T00:14:51.657Z,10.65
2022-11-17T00:17:20.435Z,12.98
2022-11-17T00:20:07.649Z,10.52
2022-11-17T00:22:36.435Z,8.45
2022-11-17T00:25:05.373Z,9.00
2022-11-17T00:27:34.070Z,11.13
2022-11-17T00:30:03.042Z,10.48
2022-11-17T00:32:50.100Z,9.18
2022-11-17T00:38:06.012Z,8.98
2022-11-17T00:43:03.379Z,10.23
2022-11-17T00:45:32.198Z,8.88
2022-11-17T00:48:01.276Z,8.18
2022-11-17T00:50:30.155Z,10.27
2022-11-17T00:52:58.999Z,9.70
2022-11-17T00:55:27.896Z,14.38
2022-11-17T00:57:56.634Z,8.63
2022-11-17T01:00:25.411Z,16.25
2022-11-17T01:02:54.175Z,17.10
2022-11-17T01:05:25.209Z,13.60
2022-11-17T01:07:56.203Z,9.38
2022-11-17T01:10:25.048Z,15.20
2022-11-17T01:12:53.755Z,15.35
2022-11-17T01:15:26.035Z,13.57
2022-11-17T01:17:58.061Z,9.25
2022-11-17T01:20:27.339Z,7.40
2022-11-17T01:22:56.510Z,6.63
2022-11-17T01:25:25.539Z,7.30
2022-11-17T01:28:14.898Z,15.00
2022-11-17T01:30:43.722Z,120.90
2022-11-17T01:33:12.581Z,121.88
2022-11-17T01:35:41.280Z,75.10
2022-11-17T01:38:10.061Z,25.02
2022-11-17T01:40:38.778Z,13.48
2022-11-17T01:43:12.473Z,6.75
2022-11-17T01:45:44.885Z,12.88
2022-11-17T01:48:16.190Z,60.90
2022-11-17T01:50:50.093Z,117.07
2022-11-17T01:53:21.162Z,49.60
2022-11-17T01:55:58.351Z,22.67
2022-11-17T01:58:37.214Z,22.38
2022-11-17T02:01:06.661Z,45.00
2022-11-17T02:03:38.044Z,28.98
2022-11-17T02:06:12.639Z,18.83
2022-11-17T02:08:44.082Z,11.68
2022-11-17T02:11:19.833Z,15.70
2022-11-17T02:13:49.788Z,25.70
2022-11-17T02:16:19.021Z,24.50
2022-11-17T02:18:49.552Z,22.58
2022-11-17T02:21:36.852Z,25.73
2022-11-17T02:26:55.408Z,17.40
2022-11-17T02:29:39.959Z,60.00
2022-11-17T02:32:24.253Z,67.30
2022-11-17T02:35:27.388Z,89.97
2022-11-17T02:38:20.470Z,84.93
2022-11-17T02:41:17.464Z,83.50
2022-11-17T02:44:08.621Z,85.47
2022-11-17T02:46:59.155Z,87.10
2022-11-17T02:49:37.464Z,67.32
2022-11-17T02:52:07.503Z,81.10
2022-11-17T02:54:36.743Z,55.22
2022-11-17T02:57:05.496Z,60.72
2022-11-17T02:59:43.832Z,37.47
2022-11-17T03:02:18.736Z,32.70
2022-11-17T03:04:59.476Z,20.60
2022-11-17T03:07:43.288Z,20.15
2022-11-17T03:10:37.553Z,14.63
2022-11-17T03:13:26.415Z,12.10
2022-11-17T03:16:04.242Z,12.65
2022-11-17T03:18:47.943Z,13.88
2022-11-17T03:21:34.888Z,12.68
2022-11-17T03:24:19.190Z,10.40
2022-11-17T03:27:06.995Z,8.55
2022-11-17T03:29:38.841Z,9.63
2022-11-17T03:32:09.216Z,11.02
2022-11-17T03:34:45.056Z,11.18
2022-11-17T03:37:16.896Z,10.37
2022-11-17T03:39:50.812Z,13.40
2022-11-17T03:42:25.312Z,13.43
2022-11-17T03:45:15.533Z,13.30
2022-11-17T03:47:45.741Z,15.88
2022-11-17T03:50:28.666Z,18.42
2022-11-17T03:52:57.594Z,20.08
2022-11-17T03:55:35.791Z,20.33
2022-11-17T03:58:18.850Z,18.88
2022-11-17T04:00:53.403Z,18.17
2022-11-17T04:03:30.755Z,15.07
2022-11-17T04:06:02.168Z,12.90
2022-11-17T04:08:31.508Z,14.35
2022-11-17T04:11:18.636Z,12.10
2022-11-17T04:16:34.762Z,10.45
2022-11-17T04:19:03.581Z,11.18
2022-11-17T04:21:32.426Z,9.45
2022-11-17T04:24:01.280Z,9.45
2022-11-17T04:26:48.806Z,10.68
2022-11-17T04:29:18.374Z,12.10
2022-11-17T04:31:47.299Z,9.38
2022-11-17T04:34:16.518Z,10.43
2022-11-17T04:36:46.430Z,11.70
2022-11-17T04:39:16.978Z,10.10
2022-11-17T04:41:55.352Z,10.57
2022-11-17T04:44:29.621Z,11.27
2022-11-17T04:46:59.220Z,12.20
2022-11-17T04:49:28.170Z,9.93
2022-11-17T04:51:57.852Z,10.05
2022-11-17T04:54:26.759Z,11.00
2022-11-17T04:56:56.286Z,14.15
2022-11-17T04:59:25.367Z,8.93
2022-11-17T05:02:06.160Z,9.30
2022-11-17T05:04:54.083Z,9.73
2022-11-17T05:07:25.437Z,10.32
2022-11-17T05:09:55.657Z,10.68
2022-11-17T05:12:42.912Z,12.63
2022-11-17T05:15:11.729Z,9.90
2022-11-17T05:17:44.065Z,10.57
2022-11-17T05:20:13.047Z,13.80
2022-11-17T05:23:05.323Z,10.63
2022-11-17T05:25:35.430Z,11.40
2022-11-17T05:28:04.566Z,9.00
2022-11-17T05:30:33.539Z,9.20
2022-11-17T05:33:02.414Z,9.82
2022-11-17T05:35:31.184Z,10.88
2022-11-17T05:37:59.949Z,10.60
2022-11-17T05:40:28.891Z,11.38
2022-11-17T05:42:57.704Z,7.70
2022-11-17T05:45:26.544Z,11.68
2022-11-17T05:51:06.533Z,11.30
2022-11-17T05:53:35.860Z,9.80
2022-11-17T05:56:18.675Z,9.60
2022-11-17T05:58:51.639Z,9.82
2022-11-17T06:01:22.862Z,12.85
2022-11-17T06:03:57.391Z,10.80
2022-11-17T06:06:30.682Z,13.35
2022-11-17T06:09:00.195Z,9.00
2022-11-17T06:11:31.593Z,11.95
2022-11-17T06:14:00.678Z,12.40
2022-11-17T06:16:34.043Z,11.23
2022-11-17T06:19:20.099Z,10.45
2022-11-17T06:22:11.219Z,11.60
2022-11-17T06:24:41.137Z,14.27
2022-11-17T06:27:12.402Z,10.90
2022-11-17T06:29:44.659Z,13.93
2022-11-17T06:32:16.564Z,17.15
2022-11-17T06:34:54.859Z,12.52
2022-11-17T06:37:28.434Z,15.77
2022-11-17T06:39:57.917Z,13.18
2022-11-17T06:42:45.152Z,11.30
2022-11-17T06:45:14.161Z,13.77
2022-11-17T06:47:43.041Z,10.38
2022-11-17T06:50:12.598Z,11.73
2022-11-17T06:52:41.868Z,10.63
2022-11-17T06:55:12.009Z,10.77
2022-11-17T06:57:41.282Z,11.70
2022-11-17T07:00:13.408Z,12.30
2022-11-17T07:02:43.071Z,10.52
2022-11-17T07:05:12.018Z,9.75
2022-11-17T07:07:41.834Z,11.30
2022-11-17T07:10:11.658Z,13.05
2022-11-17T07:12:40.809Z,11.63
2022-11-17T07:15:10.365Z,15.02
2022-11-17T07:17:39.696Z,12.43
2022-11-17T07:20:09.551Z,15.73
2022-11-17T07:22:39.340Z,25.73
2022-11-17T07:25:08.876Z,13.35
2022-11-17T07:27:38.316Z,16.92
2022-11-17T07:30:08.753Z,17.50
2022-11-17T07:32:37.835Z,16.80
2022-11-17T07:35:07.057Z,14.10
2022-11-17T07:37:36.623Z,16.83
2022-11-17T07:40:06.211Z,14.80
2022-11-17T07:42:35.221Z,16.25
2022-11-17T07:45:08.575Z,16.13
2022-11-17T07:47:37.511Z,17.67
2022-11-17T07:50:07.304Z,17.20
2022-11-17T07:52:41.292Z,20.00
2022-11-17T07:55:11.021Z,17.73
2022-11-17T07:57:41.565Z,16.80
2022-11-17T08:00:11.625Z,18.35
2022-11-17T08:02:43.374Z,24.85
2022-11-17T08:05:12.410Z,18.80
2022-11-17T08:07:41.330Z,19.42
2022-11-17T08:10:10.951Z,19.70
2022-11-17T08:12:39.952Z,22.42
2022-11-17T08:15:09.668Z,23.20
2022-11-17T08:17:38.647Z,23.65
2022-11-17T08:20:08.001Z,21.23
2022-11-17T08:22:36.883Z,18.52
2022-11-17T08:25:06.337Z,23.13
2022-11-17T08:27:35.952Z,23.90
2022-11-17T08:30:05.596Z,26.45
2022-11-17T08:32:34.854Z,28.25
2022-11-17T08:35:08.229Z,28.15
2022-11-17T08:37:42.356Z,26.63
2022-11-17T08:40:13.442Z,29.08
2022-11-17T08:42:45.080Z,27.40
2022-11-17T08:45:14.753Z,28.33
2022-11-17T08:47:43.973Z,26.17
2022-11-17T08:50:13.465Z,28.90
2022-11-17T08:52:45.799Z,31.13
2022-11-17T08:55:15.641Z,27.98
2022-11-17T08:57:44.983Z,47.05
2022-11-17T09:00:17.453Z,41.50
2022-11-17T09:02:47.061Z,31.42
2022-11-17T09:05:16.393Z,39.63
2022-11-17T09:07:46.115Z,42.35
2022-11-17T09:10:15.721Z,41.20
2022-11-17T09:12:45.889Z,31.35
2022-11-17T09:15:15.121Z,31.30
2022-11-17T09:17:48.597Z,33.75
2022-11-17T09:20:18.961Z,26.85
2022-11-17T09:22:48.232Z,25.85
2022-11-17T09:25:17.695Z,29.02
2022-11-17T09:27:46.763Z,26.92
2022-11-17T09:30:16.474Z,27.30
2022-11-17T09:32:45.537Z,26.90
2022-11-17T09:35:15.027Z,26.40
2022-11-17T09:37:44.142Z,34.50
2022-11-17T09:40:20.721Z,36.40
2022-11-17T09:42:49.815Z,33.40
2022-11-17T09:45:23.975Z,39.08
2022-11-17T09:48:38.924Z,48.95
2022-11-17T09:51:00.641Z,61.83
2022-11-17T09:53:41.843Z,61.97
2022-11-17T09:56:12.983Z,43.20
2022-11-17T09:58:51.769Z,55.45
2022-11-17T10:01:23.434Z,64.30
2022-11-17T10:03:57.794Z,54.17
2022-11-17T10:06:33.474Z,36.13
2022-11-17T10:09:40.004Z,62.50
2022-11-17T10:12:22.487Z,59.20
2022-11-17T10:14:52.087Z,39.10
2022-11-17T10:17:24.081Z,33.10
2022-11-17T10:19:53.007Z,29.27
2022-11-17T10:22:35.653Z,43.75
2022-11-17T10:25:05.455Z,110.75
2022-11-17T10:27:36.013Z,124.93
2022-11-17T10:30:27.297Z,109.75
2022-11-17T10:33:03.889Z,71.45
2022-11-17T10:35:36.079Z,42.13
2022-11-17T10:38:09.531Z,30.10
2022-11-17T10:40:41.724Z,42.28
2022-11-17T10:43:18.208Z,32.58
2022-11-17T10:46:02.582Z,26.20
2022-11-17T10:48:39.658Z,22.15
2022-11-17T10:54:18.479Z,21.23
2022-11-17T10:56:58.997Z,25.23
2022-11-17T10:59:43.082Z,27.42
2022-11-17T11:02:30.720Z,21.42
2022-11-17T11:05:22.009Z,21.75
2022-11-17T11:07:50.990Z,21.77
2022-11-17T11:10:37.638Z,25.27
2022-11-17T11:13:24.591Z,19.48
2022-11-17T11:15:54.415Z,21.75
2022-11-17T11:18:23.822Z,20.65
2022-11-17T11:21:06.887Z,19.55
2022-11-17T11:23:57.070Z,21.25
2022-11-17T11:27:06.925Z,16.15
2022-11-17T11:30:10.473Z,24.75
2022-11-17T11:33:13.135Z,20.10
2022-11-17T11:36:07.009Z,16.38
2022-11-17T11:38:59.086Z,16.80
2022-11-17T11:41:44.274Z,16.88
2022-11-17T11:44:36.429Z,22.33
2022-11-17T11:47:54.179Z,18.98
2022-11-17T11:50:44.177Z,20.48
2022-11-17T11:53:37.177Z,21.05
2022-11-17T11:56:35.109Z,16.20
2022-11-17T11:59:27.017Z,19.27
2022-11-17T12:02:14.835Z,19.20
2022-11-17T12:04:59.178Z,20.77
2022-11-17T12:08:10.363Z,18.33
2022-11-17T12:10:54.772Z,18.05
2022-11-17T12:13:25.094Z,17.35
2022-11-17T12:16:18.595Z,15.93
2022-11-17T12:18:47.879Z,17.90
2022-11-17T12:21:26.935Z,15.57
2022-11-17T12:24:17.919Z,17.05
2022-11-17T12:26:47.093Z,17.23
2022-11-17T12:29:22.238Z,20.65
2022-11-17T12:31:53.185Z,15.38
2022-11-17T12:34:26.710Z,14.02
2022-11-17T12:37:19.631Z,14.90
2022-11-17T12:39:56.210Z,20.15
2022-11-17T12:42:25.809Z,16.50
2022-11-17T12:45:03.196Z,15.60
2022-11-17T12:47:54.812Z,12.05
2022-11-17T12:50:46.798Z,13.23
2022-11-17T12:53:38.250Z,12.05
2022-11-17T12:56:14.260Z,13.52
2022-11-17T12:59:17.599Z,12.57
2022-11-17T13:02:16.448Z,11.32
2022-11-17T13:04:53.164Z,10.90
2022-11-17T13:07:26.217Z,8.77
2022-11-17T13:10:00.303Z,8.00
2022-11-17T13:12:32.139Z,6.40
2022-11-17T13:15:03.452Z,8.07
2022-11-17T13:17:34.088Z,5.63
2022-11-17T13:20:19.186Z,7.30
2022-11-17T13:23:14.136Z,7.70
2022-11-17T13:25:43.300Z,8.82
2022-11-17T13:28:32.960Z,6.72
2022-11-17T13:31:02.804Z,5.35
2022-11-17T13:33:39.608Z,6.47
2022-11-17T13:36:26.468Z,6.13
2022-11-17T13:39:01.353Z,9.18
2022-11-17T13:41:40.362Z,7.18
2022-11-17T13:44:16.416Z,8.18
2022-11-17T13:46:45.668Z,5.75
2022-11-17T13:49:47.092Z,7.20
2022-11-17T13:52:47.198Z,9.93
2022-11-17T13:55:22.513Z,7.00
2022-11-17T13:58:02.918Z,7.93
2022-11-17T14:00:33.128Z,10.55
2022-11-17T14:03:07.032Z,8.02
2022-11-17T14:05:36.488Z,6.75
2022-11-17T14:08:26.187Z,10.15
2022-11-17T14:11:16.075Z,9.40
2022-11-17T14:13:59.620Z,9.23
2022-11-17T14:16:43.543Z,8.50
2022-11-17T14:19:18.925Z,9.77
2022-11-17T14:22:27.707Z,7.45
2022-11-17T14:24:59.741Z,8.07
2022-11-17T14:27:28.660Z,8.18
2022-11-17T14:29:57.464Z,6.38
2022-11-17T14:32:26.893Z,8.63
2022-11-17T14:34:56.078Z,8.02
2022-11-17T14:37:25.678Z,6.78
2022-11-17T14:39:56.279Z,6.90
2022-11-17T14:42:28.341Z,6.70
2022-11-17T14:45:05.981Z,7.30
2022-11-17T14:47:34.954Z,9.30
2022-11-17T14:50:04.488Z,6.72
2022-11-17T14:52:34.054Z,7.00
2022-11-17T14:55:03.140Z,9.65
2022-11-17T14:57:32.218Z,8.93
2022-11-17T15:00:01.844Z,7.32
2022-11-17T15:02:32.548Z,7.47
2022-11-17T15:05:01.709Z,10.95
2022-11-17T15:07:30.747Z,8.63
2022-11-17T15:10:00.621Z,11.02
2022-11-17T15:12:30.622Z,7.57
2022-11-17T15:14:59.904Z,6.78
2022-11-17T15:17:29.864Z,7.70
2022-11-17T15:19:58.967Z,7.45
2022-11-17T15:22:28.170Z,11.95
2022-11-17T15:24:57.158Z,7.35
2022-11-17T15:27:28.494Z,8.20
2022-11-17T15:29:57.593Z,6.80
2022-11-17T15:32:26.415Z,9.30
2022-11-17T15:34:55.345Z,8.00
2022-11-17T15:37:24.255Z,7.60
2022-11-17T15:39:53.128Z,6.18
2022-11-17T15:42:22.202Z,7.55
2022-11-17T15:44:51.281Z,8.80
2022-11-17T15:47:20.072Z,8.82
2022-11-17T15:49:49.287Z,6.80
2022-11-17T15:52:30.147Z,7.13
2022-11-17T15:55:08.419Z,10.63
2022-11-17T15:57:37.456Z,7.15
2022-11-17T16:00:07.670Z,9.15
2022-11-17T16:02:36.904Z,8.55
2022-11-17T16:05:06.706Z,7.30
2022-11-17T16:07:36.156Z,7.45
2022-11-17T16:10:06.569Z,9.13
2022-11-17T16:12:36.581Z,9.52
2022-11-17T16:15:06.502Z,8.55
2022-11-17T16:17:37.061Z,7.57
2022-11-17T16:20:06.503Z,10.60
2022-11-17T16:22:36.165Z,11.25
2022-11-17T16:25:06.402Z,10.23
2022-11-17T16:27:35.278Z,8.73
2022-11-17T16:30:04.390Z,8.18
2022-11-17T16:32:34.921Z,12.30
2022-11-17T16:35:03.891Z,9.88
2022-11-17T16:37:35.048Z,9.00
2022-11-17T16:40:06.885Z,9.73
2022-11-17T16:42:35.912Z,9.40
2022-11-17T16:45:05.077Z,8.18
2022-11-17T16:47:33.961Z,10.77
2022-11-17T16:50:04.802Z,10.48
2022-11-17T16:52:35.958Z,9.73
2022-11-17T16:55:07.373Z,9.48
2022-11-17T16:57:38.377Z,10.88
2022-11-17T17:00:17.033Z,9.25
2022-11-17T17:02:50.720Z,10.00
2022-11-17T17:05:25.418Z,12.63
2022-11-17T17:07:57.827Z,11.63
2022-11-17T17:10:27.155Z,9.52
2022-11-17T17:13:08.333Z,11.23
2022-11-17T17:16:15.661Z,10.15
2022-11-17T17:18:45.864Z,10.13
2022-11-17T17:21:17.515Z,10.38
2022-11-17T17:23:51.427Z,9.30
2022-11-17T17:26:23.939Z,11.60
2022-11-17T17:28:55.839Z,10.73
2022-11-17T17:31:32.151Z,8.95
2022-11-17T17:34:01.131Z,10.88
2022-11-17T17:36:30.350Z,9.70
2022-11-17T17:39:03.661Z,13.18
2022-11-17T17:41:41.711Z,11.37
2022-11-17T17:44:18.780Z,8.90
2022-11-17T17:46:49.529Z,12.50
2022-11-17T17:49:19.807Z,10.65
2022-11-17T17:51:48.953Z,10.05
2022-11-17T17:54:24.942Z,9.82
2022-11-17T17:56:53.882Z,8.18
2022-11-17T17:59:22.937Z,8.65
2022-11-17T18:01:52.339Z,6.72
2022-11-17T18:04:21.518Z,10.18
2022-11-17T18:06:50.369Z,12.07
2022-11-17T18:09:21.943Z,12.48
2022-11-17T18:11:51.467Z,8.50
2022-11-17T18:14:25.042Z,9.30
2022-11-17T18:16:54.782Z,9.75
2022-11-17T18:19:28.215Z,9.65
2022-11-17T18:21:58.855Z,7.38
2022-11-17T18:24:27.629Z,9.25
2022-11-17T18:26:56.635Z,8.05
2022-11-17T18:29:25.552Z,10.75
2022-11-17T18:31:54.524Z,7.68
2022-11-17T18:34:29.161Z,8.82
2022-11-17T18:36:58.127Z,7.82
2022-11-17T18:39:29.094Z,6.72
2022-11-17T18:41:58.224Z,8.05
2022-11-17T18:44:28.846Z,7.13
2022-11-17T18:47:02.542Z,8.85
2022-11-17T18:49:32.528Z,6.32
2022-11-17T18:52:01.427Z,6.95
2022-11-17T18:54:30.400Z,7.20
2022-11-17T18:57:00.790Z,5.82
2022-11-17T18:59:30.111Z,5.65
2022-11-17T19:01:59.237Z,5.00
2022-11-17T19:04:28.270Z,7.03
2022-11-17T19:06:58.408Z,7.70
2022-11-17T19:09:27.316Z,7.30
2022-11-17T19:11:56.643Z,7.82
2022-11-17T19:14:25.521Z,6.03
2022-11-17T19:16:55.337Z,7.30
2022-11-17T19:19:24.261Z,5.93
2022-11-17T19:21:53.199Z,7.55
2022-11-17T19:24:22.066Z,6.97
2022-11-17T19:26:51.109Z,4.63
2022-11-17T19:29:22.142Z,5.95
2022-11-17T19:31:53.236Z,6.00
2022-11-17T19:34:22.517Z,7.68
2022-11-17T19:36:51.362Z,6.82
2022-11-17T19:39:20.639Z,5.65
2022-11-17T19:41:49.584Z,6.40
2022-11-17T19:44:18.623Z,4.13
2022-11-17T19:46:47.701Z,4.25
2022-11-17T19:49:17.264Z,5.55
2022-11-17T19:51:46.353Z,4.93
2022-11-17T19:54:15.351Z,4.93
2022-11-17T19:56:44.402Z,5.65
2022-11-17T19:59:16.327Z,5.53
2022-11-17T20:01:46.779Z,4.78
2022-11-17T20:04:15.763Z,4.20
2022-11-17T20:06:45.492Z,6.03
2022-11-17T20:09:15.963Z,4.82
2022-11-17T20:11:47.409Z,5.80
2022-11-17T20:14:16.698Z,4.38
2022-11-17T20:16:45.905Z,13.02
2022-11-17T20:19:15.117Z,6.75
2022-11-17T20:21:44.067Z,5.30
2022-11-17T20:24:12.930Z,4.15
2022-11-17T20:26:43.743Z,6.40
2022-11-17T20:29:12.681Z,4.70
2022-11-17T20:31:42.387Z,4.10
2022-11-17T20:34:13.481Z,4.55
2022-11-17T20:36:42.381Z,6.03
2022-11-17T20:39:11.963Z,5.75
2022-11-17T20:41:40.755Z,5.53
2022-11-17T20:44:24.499Z,3.80
2022-11-17T20:46:56.521Z,4.40
2022-11-17T20:49:25.793Z,7.35
2022-11-17T20:51:54.521Z,4.70
2022-11-17T20:54:24.284Z,4.32
2022-11-17T20:56:53.317Z,3.42
2022-11-17T20:59:22.427Z,5.07
2022-11-17T21:01:51.951Z,4.53
2022-11-17T21:04:21.152Z,6.75
2022-11-17T21:06:50.212Z,3.45
2022-11-17T21:09:22.276Z,4.63
2022-11-17T21:11:57.145Z,4.82
2022-11-17T21:14:29.137Z,5.15
2022-11-17T21:17:01.203Z,5.55
2022-11-17T21:19:34.204Z,4.75
2022-11-17T21:22:05.352Z,6.47
2022-11-17T21:24:34.132Z,5.57
2022-11-17T21:27:03.101Z,4.93
2022-11-17T21:29:31.918Z,5.47
2022-11-17T21:32:00.739Z,3.70
2022-11-17T21:34:29.534Z,4.93
2022-11-17T21:36:58.635Z,4.97
2022-11-17T21:39:27.365Z,4.38
2022-11-17T21:41:56.714Z,3.60
2022-11-17T21:44:25.499Z,4.43
2022-11-17T21:46:54.769Z,6.18
2022-11-17T21:49:23.624Z,4.22
2022-11-17T21:51:52.504Z,4.93
2022-11-17T21:57:30.669Z,3.35
2022-11-17T22:00:19.084Z,4.63
2022-11-17T22:03:06.734Z,4.53
2022-11-17T22:06:02.096Z,5.65
2022-11-17T22:08:50.364Z,3.80
2022-11-17T22:11:39.018Z,3.28
2022-11-17T22:14:16.823Z,6.75
2022-11-17T22:16:57.081Z,5.22
2022-11-17T22:19:29.235Z,4.20
2022-11-17T22:22:16.226Z,6.20
2022-11-17T22:24:49.627Z,4.57
2022-11-17T22:27:37.610Z,4.88
2022-11-17T22:30:07.131Z,4.65
2022-11-17T22:32:54.397Z,5.07
2022-11-17T22:35:41.733Z,5.18
2022-11-17T22:38:31.991Z,4.00
2022-11-17T22:41:21.610Z,5.32
2022-11-17T22:44:14.985Z,3.83
2022-11-17T22:46:44.199Z,3.58
2022-11-17T22:49:31.498Z,3.78
2022-11-17T22:52:18.842Z,3.05
2022-11-17T22:55:06.685Z,6.43
2022-11-17T22:57:53.982Z,5.18
2022-11-17T23:00:42.085Z,3.88
2022-11-17T23:03:33.745Z,4.15
2022-11-17T23:06:37.070Z,3.83
2022-11-17T23:09:27.622Z,2.67
2022-11-17T23:15:02.275Z,3.85
2022-11-17T23:17:31.883Z,2.95
2022-11-17T23:23:08.981Z,5.38
2022-11-17T23:26:01.999Z,4.90
2022-11-17T23:28:52.471Z,2.70
2022-11-17T23:31:40.308Z,4.13
2022-11-17T23:34:11.523Z,4.45
2022-11-17T23:36:44.648Z,5.70
2022-11-17T23:39:32.334Z,4.63
2022-11-17T23:42:01.469Z,4.50
2022-11-17T23:44:33.570Z,3.78
2022-11-17T23:47:02.603Z,4.18
2022-11-17T23:49:31.530Z,7.80
2022-11-17T23:52:00.772Z,6.20
2022-11-17T23:54:32.947Z,4.05
2022-11-17T23:57:03.349Z,3.90
2022-11-17T23:59:33.103Z,4.60
